sensor_id;sensor_type;location;lat;lon;timestamp;pressure;altitude;pressure_sealevel;temperature;humidity
44044;BME280;29709;52.396;16.796;2023-05-09T00:02:29;102894.14;;;9.17;59.80
44044;BME280;29709;52.396;16.796;2023-05-09T00:05:42;102898.07;;;9.13;61.39
44044;BME280;29709;52.396;16.796;2023-05-09T00:08:55;102895.55;;;9.10;59.73
44044;BME280;29709;52.396;16.796;2023-05-09T00:12:09;102890.37;;;9.06;61.87
44044;BME280;29709;52.396;16.796;2023-05-09T00:15:24;102886.85;;;9.04;61.21
44044;BME280;29709;52.396;16.796;2023-05-09T00:18:38;102880.62;;;9.02;60.16
44044;BME280;29709;52.396;16.796;2023-05-09T00:21:54;102889.06;;;8.99;60.25
44044;BME280;29709;52.396;16.796;2023-05-09T00:25:08;102882.81;;;8.96;60.71
44044;BME280;29709;52.396;16.796;2023-05-09T00:28:22;102888.48;;;8.93;60.91
44044;BME280;29709;52.396;16.796;2023-05-09T00:31:35;102884.33;;;8.88;61.64
44044;BME280;29709;52.396;16.796;2023-05-09T00:34:49;102874.76;;;8.81;60.93
44044;BME280;29709;52.396;16.796;2023-05-09T00:38:02;102874.29;;;8.74;60.47
44044;BME280;29709;52.396;16.796;2023-05-09T00:41:15;102881.64;;;8.74;60.79
44044;BME280;29709;52.396;16.796;2023-05-09T00:44:29;102874.63;;;8.70;61.30
44044;BME280;29709;52.396;16.796;2023-05-09T00:47:42;102871.89;;;8.70;61.03
44044;BME280;29709;52.396;16.796;2023-05-09T00:50:55;102870.24;;;8.67;62.79
44044;BME280;29709;52.396;16.796;2023-05-09T00:54:08;102866.04;;;8.61;60.88
44044;BME280;29709;52.396;16.796;2023-05-09T00:57:24;102868.99;;;8.58;61.22
44044;BME280;29709;52.396;16.796;2023-05-09T01:00:37;102868.53;;;8.52;61.40
44044;BME280;29709;52.396;16.796;2023-05-09T01:03:51;102863.78;;;8.41;62.46
44044;BME280;29709;52.396;16.796;2023-05-09T01:27:41;102850.99;;;8.27;61.58
44044;BME280;29709;52.396;16.796;2023-05-09T01:30:57;102848.53;;;8.23;62.33
44044;BME280;29709;52.396;16.796;2023-05-09T01:34:14;102848.37;;;8.26;61.93
44044;BME280;29709;52.396;16.796;2023-05-09T01:37:29;102846.50;;;8.26;61.84
44044;BME280;29709;52.396;16.796;2023-05-09T01:40:45;102854.82;;;8.25;62.38
44044;BME280;29709;52.396;16.796;2023-05-09T01:44:03;102853.95;;;8.24;63.23
44044;BME280;29709;52.396;16.796;2023-05-09T01:47:18;102849.23;;;8.26;63.67
44044;BME280;29709;52.396;16.796;2023-05-09T01:50:32;102846.40;;;8.28;61.45
44044;BME280;29709;52.396;16.796;2023-05-09T01:53:48;102839.26;;;8.25;61.81
44044;BME280;29709;52.396;16.796;2023-05-09T01:57:05;102841.53;;;8.19;62.89
44044;BME280;29709;52.396;16.796;2023-05-09T02:00:20;102841.73;;;8.16;61.80
44044;BME280;29709;52.396;16.796;2023-05-09T02:03:36;102841.15;;;8.10;63.54
44044;BME280;29709;52.396;16.796;2023-05-09T02:06:51;102839.50;;;8.08;63.35
44044;BME280;29709;52.396;16.796;2023-05-09T02:10:08;102828.77;;;8.05;62.13
44044;BME280;29709;52.396;16.796;2023-05-09T02:13:21;102828.28;;;7.98;63.88
44044;BME280;29709;52.396;16.796;2023-05-09T02:16:35;102818.21;;;7.99;62.06
44044;BME280;29709;52.396;16.796;2023-05-09T02:19:48;102823.31;;;7.91;63.37
44044;BME280;29709;52.396;16.796;2023-05-09T02:23:02;102815.02;;;7.92;61.94
44044;BME280;29709;52.396;16.796;2023-05-09T02:26:15;102816.95;;;7.90;62.31
44044;BME280;29709;52.396;16.796;2023-05-09T02:29:34;102817.56;;;7.81;63.09
44044;BME280;29709;52.396;16.796;2023-05-09T02:32:58;102813.39;;;7.75;63.68
44044;BME280;29709;52.396;16.796;2023-05-09T02:36:16;102821.50;;;7.77;63.33
44044;BME280;29709;52.396;16.796;2023-05-09T02:39:30;102817.99;;;7.75;63.04
44044;BME280;29709;52.396;16.796;2023-05-09T02:42:43;102812.41;;;7.76;62.82
44044;BME280;29709;52.396;16.796;2023-05-09T02:45:57;102819.96;;;7.73;64.50
44044;BME280;29709;52.396;16.796;2023-05-09T02:49:10;102820.62;;;7.76;62.79
44044;BME280;29709;52.396;16.796;2023-05-09T02:52:23;102815.14;;;7.76;62.81
44044;BME280;29709;52.396;16.796;2023-05-09T02:55:37;102815.54;;;7.70;64.06
44044;BME280;29709;52.396;16.796;2023-05-09T02:58:50;102812.91;;;7.69;64.14
44044;BME280;29709;52.396;16.796;2023-05-09T03:02:03;102813.88;;;7.68;63.11
44044;BME280;29709;52.396;16.796;2023-05-09T03:05:17;102822.09;;;7.68;64.33
44044;BME280;29709;52.396;16.796;2023-05-09T03:08:30;102811.57;;;7.62;63.10
44044;BME280;29709;52.396;16.796;2023-05-09T03:11:43;102805.91;;;7.50;65.31
44044;BME280;29709;52.396;16.796;2023-05-09T03:14:56;102810.48;;;7.50;63.67
44044;BME280;29709;52.396;16.796;2023-05-09T03:18:10;102816.37;;;7.44;65.46
44044;BME280;29709;52.396;16.796;2023-05-09T03:21:24;102811.00;;;7.42;63.67
44044;BME280;29709;52.396;16.796;2023-05-09T03:24:37;102810.12;;;7.42;64.02
44044;BME280;29709;52.396;16.796;2023-05-09T03:27:50;102810.39;;;7.37;64.30
44044;BME280;29709;52.396;16.796;2023-05-09T03:31:04;102813.34;;;7.34;64.19
44044;BME280;29709;52.396;16.796;2023-05-09T03:34:18;102805.91;;;7.36;64.56
44044;BME280;29709;52.396;16.796;2023-05-09T03:37:31;102817.73;;;7.37;64.11
44044;BME280;29709;52.396;16.796;2023-05-09T03:40:44;102814.00;;;7.38;64.21
44044;BME280;29709;52.396;16.796;2023-05-09T03:43:57;102817.34;;;7.43;64.33
44044;BME280;29709;52.396;16.796;2023-05-09T03:47:10;102815.38;;;7.45;64.04
44044;BME280;29709;52.396;16.796;2023-05-09T03:50:23;102808.66;;;7.50;64.34
44044;BME280;29709;52.396;16.796;2023-05-09T03:53:37;102816.86;;;7.50;65.41
44044;BME280;29709;52.396;16.796;2023-05-09T03:56:50;102814.38;;;7.60;64.53
44044;BME280;29709;52.396;16.796;2023-05-09T04:00:04;102814.97;;;7.65;64.79
44044;BME280;29709;52.396;16.796;2023-05-09T04:03:19;102817.32;;;7.71;64.23
44044;BME280;29709;52.396;16.796;2023-05-09T04:06:32;102807.92;;;7.75;64.63
44044;BME280;29709;52.396;16.796;2023-05-09T04:09:46;102810.55;;;7.77;64.22
44044;BME280;29709;52.396;16.796;2023-05-09T04:12:59;102812.89;;;7.83;64.01
44044;BME280;29709;52.396;16.796;2023-05-09T04:16:13;102820.88;;;7.86;64.18
44044;BME280;29709;52.396;16.796;2023-05-09T04:19:26;102806.01;;;7.90;63.62
44044;BME280;29709;52.396;16.796;2023-05-09T04:22:39;102808.90;;;8.01;64.16
44044;BME280;29709;52.396;16.796;2023-05-09T04:25:52;102806.75;;;8.06;63.80
44044;BME280;29709;52.396;16.796;2023-05-09T04:29:06;102806.02;;;8.17;63.58
44044;BME280;29709;52.396;16.796;2023-05-09T04:32:19;102808.14;;;8.26;63.52
44044;BME280;29709;52.396;16.796;2023-05-09T04:35:34;102801.63;;;8.42;63.10
44044;BME280;29709;52.396;16.796;2023-05-09T04:38:48;102810.68;;;8.56;62.54
44044;BME280;29709;52.396;16.796;2023-05-09T04:42:01;102813.66;;;8.66;62.62
44044;BME280;29709;52.396;16.796;2023-05-09T04:45:14;102815.54;;;8.78;62.31
44044;BME280;29709;52.396;16.796;2023-05-09T04:48:27;102814.78;;;8.89;62.12
44044;BME280;29709;52.396;16.796;2023-05-09T04:51:40;102806.21;;;9.06;61.18
44044;BME280;29709;52.396;16.796;2023-05-09T04:54:54;102808.41;;;9.14;61.10
44044;BME280;29709;52.396;16.796;2023-05-09T04:58:08;102803.91;;;9.25;61.12
44044;BME280;29709;52.396;16.796;2023-05-09T05:01:21;102799.30;;;9.39;60.15
44044;BME280;29709;52.396;16.796;2023-05-09T05:04:34;102807.27;;;9.54;59.97
44044;BME280;29709;52.396;16.796;2023-05-09T05:07:48;102811.45;;;9.60;59.49
44044;BME280;29709;52.396;16.796;2023-05-09T05:11:01;102806.69;;;9.75;59.03
44044;BME280;29709;52.396;16.796;2023-05-09T05:14:14;102803.89;;;9.88;59.02
44044;BME280;29709;52.396;16.796;2023-05-09T05:17:27;102803.26;;;10.08;58.84
44044;BME280;29709;52.396;16.796;2023-05-09T05:20:41;102806.70;;;10.35;58.58
44044;BME280;29709;52.396;16.796;2023-05-09T05:23:54;102804.82;;;10.71;58.34
44044;BME280;29709;52.396;16.796;2023-05-09T05:27:07;102809.57;;;11.15;56.74
44044;BME280;29709;52.396;16.796;2023-05-09T05:30:21;102801.65;;;11.67;55.93
44044;BME280;29709;52.396;16.796;2023-05-09T05:33:34;102804.28;;;12.02;54.43
44044;BME280;29709;52.396;16.796;2023-05-09T05:36:47;102803.77;;;12.40;53.60
44044;BME280;29709;52.396;16.796;2023-05-09T05:40:00;102813.37;;;12.78;53.13
44044;BME280;29709;52.396;16.796;2023-05-09T05:43:13;102811.63;;;12.97;51.30
44044;BME280;29709;52.396;16.796;2023-05-09T05:46:26;102803.86;;;13.12;50.99
44044;BME280;29709;52.396;16.796;2023-05-09T05:49:40;102813.00;;;13.24;50.23
44044;BME280;29709;52.396;16.796;2023-05-09T05:52:53;102821.59;;;13.61;51.21
44044;BME280;29709;52.396;16.796;2023-05-09T05:56:06;102815.45;;;13.88;49.78
44044;BME280;29709;52.396;16.796;2023-05-09T05:59:19;102804.71;;;14.04;48.71
44044;BME280;29709;52.396;16.796;2023-05-09T06:02:33;102803.86;;;14.13;46.90
44044;BME280;29709;52.396;16.796;2023-05-09T06:05:46;102798.94;;;14.36;48.08
44044;BME280;29709;52.396;16.796;2023-05-09T06:09:00;102797.22;;;14.45;47.50
44044;BME280;29709;52.396;16.796;2023-05-09T06:12:13;102797.95;;;14.66;47.75
44044;BME280;29709;52.396;16.796;2023-05-09T06:15:28;102801.54;;;15.06;46.53
44044;BME280;29709;52.396;16.796;2023-05-09T06:18:42;102800.32;;;15.27;46.11
44044;BME280;29709;52.396;16.796;2023-05-09T06:21:55;102795.42;;;15.49;45.22
44044;BME280;29709;52.396;16.796;2023-05-09T06:25:08;102798.31;;;15.57;45.28
44044;BME280;29709;52.396;16.796;2023-05-09T06:28:22;102794.30;;;15.79;44.98
44044;BME280;29709;52.396;16.796;2023-05-09T06:31:35;102787.61;;;15.72;44.30
44044;BME280;29709;52.396;16.796;2023-05-09T06:34:50;102783.97;;;15.71;44.17
44044;BME280;29709;52.396;16.796;2023-05-09T06:38:04;102786.46;;;15.74;42.77
44044;BME280;29709;52.396;16.796;2023-05-09T06:41:18;102780.48;;;15.69;42.80
44044;BME280;29709;52.396;16.796;2023-05-09T06:44:33;102772.44;;;15.76;43.09
44044;BME280;29709;52.396;16.796;2023-05-09T06:47:46;102771.90;;;15.90;43.38
44044;BME280;29709;52.396;16.796;2023-05-09T06:50:59;102769.55;;;16.13;41.56
44044;BME280;29709;52.396;16.796;2023-05-09T06:54:12;102765.91;;;16.12;41.44
44044;BME280;29709;52.396;16.796;2023-05-09T06:57:26;102760.68;;;16.09;41.30
44044;BME280;29709;52.396;16.796;2023-05-09T07:00:39;102754.26;;;16.09;41.23
44044;BME280;29709;52.396;16.796;2023-05-09T07:03:52;102751.66;;;16.07;40.69
44044;BME280;29709;52.396;16.796;2023-05-09T07:07:05;102758.14;;;16.34;40.98
44044;BME280;29709;52.396;16.796;2023-05-09T07:10:20;102750.41;;;16.37;40.24
44044;BME280;29709;52.396;16.796;2023-05-09T07:13:36;102745.68;;;16.56;40.92
44044;BME280;29709;52.396;16.796;2023-05-09T07:16:49;102756.18;;;16.80;40.17
44044;BME280;29709;52.396;16.796;2023-05-09T07:20:03;102749.78;;;16.87;39.61
44044;BME280;29709;52.396;16.796;2023-05-09T07:23:17;102757.51;;;16.76;39.40
44044;BME280;29709;52.396;16.796;2023-05-09T07:26:30;102745.94;;;16.44;38.99
44044;BME280;29709;52.396;16.796;2023-05-09T07:29:43;102750.37;;;16.55;38.01
44044;BME280;29709;52.396;16.796;2023-05-09T07:32:56;102738.48;;;16.45;38.39
44044;BME280;29709;52.396;16.796;2023-05-09T07:36:09;102738.02;;;16.50;37.75
44044;BME280;29709;52.396;16.796;2023-05-09T07:39:28;102725.22;;;16.57;38.01
44044;BME280;29709;52.396;16.796;2023-05-09T07:42:42;102733.89;;;16.71;37.66
44044;BME280;29709;52.396;16.796;2023-05-09T07:46:01;102725.13;;;16.84;36.84
44044;BME280;29709;52.396;16.796;2023-05-09T07:49:14;102725.39;;;16.73;37.14
44044;BME280;29709;52.396;16.796;2023-05-09T07:52:27;102717.60;;;16.77;37.78
44044;BME280;29709;52.396;16.796;2023-05-09T07:55:40;102710.96;;;16.95;37.39
44044;BME280;29709;52.396;16.796;2023-05-09T07:58:56;102704.37;;;16.96;37.09
44044;BME280;29709;52.396;16.796;2023-05-09T08:02:09;102708.75;;;16.99;37.08
44044;BME280;29709;52.396;16.796;2023-05-09T08:05:22;102709.92;;;17.22;36.60
44044;BME280;29709;52.396;16.796;2023-05-09T08:08:36;102697.98;;;17.38;38.14
44044;BME280;29709;52.396;16.796;2023-05-09T08:11:49;102699.46;;;17.58;37.04
44044;BME280;29709;52.396;16.796;2023-05-09T08:15:02;102691.82;;;17.60;34.88
44044;BME280;29709;52.396;16.796;2023-05-09T08:18:16;102695.16;;;17.64;34.73
44044;BME280;29709;52.396;16.796;2023-05-09T08:21:29;102688.20;;;17.68;35.96
44044;BME280;29709;52.396;16.796;2023-05-09T08:27:18;102688.06;;;17.70;34.91
44044;BME280;29709;52.396;16.796;2023-05-09T08:30:31;102682.19;;;17.73;33.71
44044;BME280;29709;52.396;16.796;2023-05-09T08:33:44;102670.88;;;17.74;34.16
44044;BME280;29709;52.396;16.796;2023-05-09T08:36:57;102676.70;;;17.55;32.92
44044;BME280;29709;52.396;16.796;2023-05-09T08:40:11;102673.40;;;17.51;34.08
44044;BME280;29709;52.396;16.796;2023-05-09T08:43:25;102668.19;;;17.56;33.86
44044;BME280;29709;52.396;16.796;2023-05-09T08:46:42;102670.73;;;17.92;34.30
44044;BME280;29709;52.396;16.796;2023-05-09T08:49:56;102664.82;;;17.87;33.65
44044;BME280;29709;52.396;16.796;2023-05-09T08:53:10;102660.45;;;17.76;34.21
44044;BME280;29709;52.396;16.796;2023-05-09T08:56:24;102649.33;;;17.76;33.15
44044;BME280;29709;52.396;16.796;2023-05-09T08:59:39;102650.04;;;17.86;33.68
44044;BME280;29709;52.396;16.796;2023-05-09T09:02:56;102642.92;;;17.84;34.47
44044;BME280;29709;52.396;16.796;2023-05-09T09:06:13;102644.48;;;18.03;33.55
44044;BME280;29709;52.396;16.796;2023-05-09T09:09:27;102638.60;;;18.14;33.29
44044;BME280;29709;52.396;16.796;2023-05-09T09:12:41;102638.76;;;18.21;32.29
44044;BME280;29709;52.396;16.796;2023-05-09T09:15:56;102635.27;;;18.43;33.05
44044;BME280;29709;52.396;16.796;2023-05-09T09:19:12;102627.59;;;18.61;32.53
44044;BME280;29709;52.396;16.796;2023-05-09T09:22:31;102617.45;;;18.85;33.46
44044;BME280;29709;52.396;16.796;2023-05-09T09:25:46;102625.85;;;18.77;32.44
44044;BME280;29709;52.396;16.796;2023-05-09T09:29:00;102616.10;;;18.72;32.05
44044;BME280;29709;52.396;16.796;2023-05-09T09:32:13;102620.27;;;18.60;32.06
44044;BME280;29709;52.396;16.796;2023-05-09T09:35:26;102615.73;;;18.75;32.49
44044;BME280;29709;52.396;16.796;2023-05-09T09:38:40;102612.28;;;18.57;32.56
44044;BME280;29709;52.396;16.796;2023-05-09T09:45:20;102600.80;;;18.77;32.91
44044;BME280;29709;52.396;16.796;2023-05-09T09:48:34;102593.31;;;18.77;32.14
44044;BME280;29709;52.396;16.796;2023-05-09T09:51:52;102593.31;;;18.77;32.22
44044;BME280;29709;52.396;16.796;2023-05-09T09:55:06;102593.23;;;18.85;32.37
44044;BME280;29709;52.396;16.796;2023-05-09T09:58:19;102589.78;;;18.83;32.03
44044;BME280;29709;52.396;16.796;2023-05-09T10:05:06;102582.85;;;18.63;30.47
44044;BME280;29709;52.396;16.796;2023-05-09T10:08:19;102573.42;;;18.80;31.82
44044;BME280;29709;52.396;16.796;2023-05-09T10:11:33;102561.44;;;18.63;32.25
44044;BME280;29709;52.396;16.796;2023-05-09T10:14:46;102555.36;;;18.60;32.23
44044;BME280;29709;52.396;16.796;2023-05-09T10:18:00;102577.47;;;18.53;32.09
44044;BME280;29709;52.396;16.796;2023-05-09T10:21:17;102563.05;;;18.41;31.69
44044;BME280;29709;52.396;16.796;2023-05-09T10:24:34;102549.88;;;18.27;32.32
44044;BME280;29709;52.396;16.796;2023-05-09T10:27:53;102546.02;;;18.44;32.99
44044;BME280;29709;52.396;16.796;2023-05-09T10:31:15;102550.09;;;18.81;32.33
44044;BME280;29709;52.396;16.796;2023-05-09T10:34:32;102535.51;;;18.71;32.32
44044;BME280;29709;52.396;16.796;2023-05-09T10:37:46;102531.47;;;18.82;32.39
44044;BME280;29709;52.396;16.796;2023-05-09T10:41:00;102518.53;;;18.97;32.18
44044;BME280;29709;52.396;16.796;2023-05-09T10:44:14;102529.48;;;19.29;31.89
44044;BME280;29709;52.396;16.796;2023-05-09T10:47:28;102523.38;;;19.57;32.48
44044;BME280;29709;52.396;16.796;2023-05-09T10:50:45;102521.51;;;19.49;29.93
44044;BME280;29709;52.396;16.796;2023-05-09T10:53:58;102521.12;;;19.29;30.62
44044;BME280;29709;52.396;16.796;2023-05-09T10:57:19;102503.20;;;19.24;30.60
44044;BME280;29709;52.396;16.796;2023-05-09T11:00:32;102506.60;;;19.34;31.40
44044;BME280;29709;52.396;16.796;2023-05-09T11:03:55;102501.41;;;19.54;30.89
44044;BME280;29709;52.396;16.796;2023-05-09T11:07:22;102501.52;;;19.38;29.49
44044;BME280;29709;52.396;16.796;2023-05-09T11:10:41;102498.48;;;19.24;29.13
44044;BME280;29709;52.396;16.796;2023-05-09T11:13:57;102484.55;;;18.93;29.90
44044;BME280;29709;52.396;16.796;2023-05-09T11:17:12;102492.80;;;19.18;30.25
44044;BME280;29709;52.396;16.796;2023-05-09T11:20:27;102478.67;;;19.19;30.43
44044;BME280;29709;52.396;16.796;2023-05-09T11:23:41;102482.13;;;19.21;29.83
44044;BME280;29709;52.396;16.796;2023-05-09T11:26:54;102472.57;;;19.16;29.73
44044;BME280;29709;52.396;16.796;2023-05-09T11:30:11;102469.98;;;19.14;30.26
44044;BME280;29709;52.396;16.796;2023-05-09T11:33:27;102464.16;;;19.24;30.31
44044;BME280;29709;52.396;16.796;2023-05-09T11:36:46;102465.17;;;19.31;30.75
44044;BME280;29709;52.396;16.796;2023-05-09T11:40:01;102453.64;;;19.34;30.43
44044;BME280;29709;52.396;16.796;2023-05-09T11:43:17;102447.62;;;19.45;30.57
44044;BME280;29709;52.396;16.796;2023-05-09T11:46:31;102439.44;;;19.67;30.93
44044;BME280;29709;52.396;16.796;2023-05-09T11:49:44;102426.87;;;19.71;30.71
44044;BME280;29709;52.396;16.796;2023-05-09T11:52:57;102420.44;;;19.70;29.81
44044;BME280;29709;52.396;16.796;2023-05-09T11:56:11;102418.66;;;19.69;29.86
44044;BME280;29709;52.396;16.796;2023-05-09T11:59:24;102426.77;;;19.79;30.02
44044;BME280;29709;52.396;16.796;2023-05-09T12:02:38;102418.79;;;19.76;29.92
44044;BME280;29709;52.396;16.796;2023-05-09T12:05:53;102388.60;;;19.94;30.63
44044;BME280;29709;52.396;16.796;2023-05-09T12:09:08;102402.09;;;19.91;29.80
44044;BME280;29709;52.396;16.796;2023-05-09T12:12:22;102397.81;;;19.80;30.09
44044;BME280;29709;52.396;16.796;2023-05-09T12:15:35;102383.88;;;19.95;30.16
44044;BME280;29709;52.396;16.796;2023-05-09T12:18:50;102374.73;;;20.01;30.28
44044;BME280;29709;52.396;16.796;2023-05-09T12:22:04;102371.09;;;20.15;30.34
44044;BME280;29709;52.396;16.796;2023-05-09T12:25:18;102356.06;;;20.45;29.49
44044;BME280;29709;52.396;16.796;2023-05-09T12:28:32;102354.21;;;20.38;29.54
44044;BME280;29709;52.396;16.796;2023-05-09T12:31:46;102352.77;;;20.27;29.32
44044;BME280;29709;52.396;16.796;2023-05-09T12:35:00;102362.59;;;20.38;28.84
44044;BME280;29709;52.396;16.796;2023-05-09T12:38:22;102355.09;;;20.53;29.39
44044;BME280;29709;52.396;16.796;2023-05-09T12:41:42;102339.38;;;20.37;28.93
44044;BME280;29709;52.396;16.796;2023-05-09T12:44:56;102328.01;;;20.39;28.30
44044;BME280;29709;52.396;16.796;2023-05-09T12:48:10;102330.40;;;20.42;29.55
44044;BME280;29709;52.396;16.796;2023-05-09T12:51:25;102335.12;;;20.41;28.90
44044;BME280;29709;52.396;16.796;2023-05-09T12:54:38;102325.52;;;20.29;29.13
44044;BME280;29709;52.396;16.796;2023-05-09T12:57:58;102311.87;;;20.19;28.00
44044;BME280;29709;52.396;16.796;2023-05-09T13:01:11;102303.39;;;20.28;27.96
44044;BME280;29709;52.396;16.796;2023-05-09T13:04:26;102325.82;;;20.34;28.57
44044;BME280;29709;52.396;16.796;2023-05-09T13:07:41;102308.01;;;20.21;28.04
44044;BME280;29709;52.396;16.796;2023-05-09T13:10:57;102303.79;;;20.10;28.18
44044;BME280;29709;52.396;16.796;2023-05-09T13:14:11;102301.71;;;20.12;28.72
44044;BME280;29709;52.396;16.796;2023-05-09T13:17:24;102301.26;;;20.30;28.80
44044;BME280;29709;52.396;16.796;2023-05-09T13:20:37;102282.72;;;20.22;27.54
44044;BME280;29709;52.396;16.796;2023-05-09T13:23:50;102284.81;;;20.20;27.78
44044;BME280;29709;52.396;16.796;2023-05-09T13:27:04;102287.05;;;20.10;27.85
44044;BME280;29709;52.396;16.796;2023-05-09T13:30:17;102290.70;;;20.10;28.08
44044;BME280;29709;52.396;16.796;2023-05-09T13:33:30;102280.15;;;20.06;27.31
44044;BME280;29709;52.396;16.796;2023-05-09T13:36:44;102274.56;;;20.06;28.85
44044;BME280;29709;52.396;16.796;2023-05-09T13:39:57;102255.73;;;20.29;28.66
44044;BME280;29709;52.396;16.796;2023-05-09T13:43:10;102258.52;;;20.29;27.75
44044;BME280;29709;52.396;16.796;2023-05-09T13:46:23;102257.09;;;20.18;27.42
44044;BME280;29709;52.396;16.796;2023-05-09T13:49:37;102246.59;;;20.21;27.79
44044;BME280;29709;52.396;16.796;2023-05-09T13:52:50;102237.77;;;20.17;27.81
44044;BME280;29709;52.396;16.796;2023-05-09T13:56:05;102244.26;;;20.03;27.75
44044;BME280;29709;52.396;16.796;2023-05-09T13:59:19;102229.99;;;20.12;28.19
44044;BME280;29709;52.396;16.796;2023-05-09T14:02:32;102230.13;;;20.26;28.30
44044;BME280;29709;52.396;16.796;2023-05-09T14:05:45;102224.79;;;20.09;27.31
44044;BME280;29709;52.396;16.796;2023-05-09T14:09:01;102220.66;;;20.05;28.08
44044;BME280;29709;52.396;16.796;2023-05-09T14:12:14;102204.92;;;20.19;27.22
44044;BME280;29709;52.396;16.796;2023-05-09T14:15:34;102204.67;;;20.14;27.57
44044;BME280;29709;52.396;16.796;2023-05-09T14:18:47;102196.09;;;20.15;28.17
44044;BME280;29709;52.396;16.796;2023-05-09T14:22:00;102190.24;;;20.32;28.64
44044;BME280;29709;52.396;16.796;2023-05-09T14:25:14;102181.48;;;20.35;27.90
44044;BME280;29709;52.396;16.796;2023-05-09T14:28:28;102187.60;;;20.24;27.75
44044;BME280;29709;52.396;16.796;2023-05-09T14:31:48;102172.62;;;20.31;28.46
44044;BME280;29709;52.396;16.796;2023-05-09T14:35:08;102158.49;;;20.33;28.80
44044;BME280;29709;52.396;16.796;2023-05-09T14:38:21;102169.17;;;20.29;27.40
44044;BME280;29709;52.396;16.796;2023-05-09T14:41:36;102169.66;;;20.33;27.38
44044;BME280;29709;52.396;16.796;2023-05-09T14:44:51;102171.76;;;20.31;27.74
44044;BME280;29709;52.396;16.796;2023-05-09T14:48:04;102157.46;;;20.40;27.66
44044;BME280;29709;52.396;16.796;2023-05-09T14:51:18;102156.60;;;20.40;27.32
44044;BME280;29709;52.396;16.796;2023-05-09T14:54:32;102140.52;;;20.21;27.05
44044;BME280;29709;52.396;16.796;2023-05-09T14:57:46;102136.62;;;20.15;27.53
44044;BME280;29709;52.396;16.796;2023-05-09T15:00:59;102136.82;;;20.13;27.27
44044;BME280;29709;52.396;16.796;2023-05-09T15:04:13;102135.67;;;20.08;28.12
44044;BME280;29709;52.396;16.796;2023-05-09T15:07:26;102127.30;;;20.08;28.08
44044;BME280;29709;52.396;16.796;2023-05-09T15:10:40;102120.27;;;20.12;27.57
44044;BME280;29709;52.396;16.796;2023-05-09T15:13:53;102119.78;;;20.08;27.13
44044;BME280;29709;52.396;16.796;2023-05-09T15:17:08;102115.02;;;20.02;27.17
44044;BME280;29709;52.396;16.796;2023-05-09T15:20:21;102102.99;;;20.02;27.53
44044;BME280;29709;52.396;16.796;2023-05-09T15:23:34;102111.81;;;20.05;27.81
44044;BME280;29709;52.396;16.796;2023-05-09T15:26:47;102100.78;;;19.97;28.19
44044;BME280;29709;52.396;16.796;2023-05-09T15:30:01;102110.13;;;19.89;27.48
44044;BME280;29709;52.396;16.796;2023-05-09T15:33:14;102102.02;;;19.73;27.50
44044;BME280;29709;52.396;16.796;2023-05-09T15:36:28;102096.04;;;19.76;27.45
44044;BME280;29709;52.396;16.796;2023-05-09T15:39:46;102091.98;;;19.79;28.01
44044;BME280;29709;52.396;16.796;2023-05-09T15:43:00;102095.19;;;19.76;28.21
44044;BME280;29709;52.396;16.796;2023-05-09T15:46:17;102074.79;;;19.75;27.63
44044;BME280;29709;52.396;16.796;2023-05-09T15:49:30;102076.84;;;19.67;27.60
44044;BME280;29709;52.396;16.796;2023-05-09T15:52:44;102070.74;;;19.42;27.48
44044;BME280;29709;52.396;16.796;2023-05-09T15:55:58;102068.66;;;19.29;28.11
44044;BME280;29709;52.396;16.796;2023-05-09T15:59:15;102073.83;;;19.32;28.13
44044;BME280;29709;52.396;16.796;2023-05-09T16:02:29;102069.88;;;19.41;27.87
44044;BME280;29709;52.396;16.796;2023-05-09T16:05:42;102052.48;;;19.39;27.96
44044;BME280;29709;52.396;16.796;2023-05-09T16:08:56;102057.20;;;19.39;27.66
44044;BME280;29709;52.396;16.796;2023-05-09T16:12:11;102041.50;;;19.38;28.15
44044;BME280;29709;52.396;16.796;2023-05-09T16:15:25;102045.09;;;19.31;27.81
44044;BME280;29709;52.396;16.796;2023-05-09T16:18:39;102040.39;;;19.32;28.23
44044;BME280;29709;52.396;16.796;2023-05-09T16:21:52;102043.82;;;19.34;28.41
44044;BME280;29709;52.396;16.796;2023-05-09T16:25:06;102043.37;;;19.30;28.25
44044;BME280;29709;52.396;16.796;2023-05-09T16:28:21;102031.62;;;19.35;28.22
44044;BME280;29709;52.396;16.796;2023-05-09T16:31:40;102024.77;;;19.38;27.50
44044;BME280;29709;52.396;16.796;2023-05-09T16:34:56;102026.04;;;19.35;27.61
44044;BME280;29709;52.396;16.796;2023-05-09T16:38:15;102022.50;;;19.26;27.78
44044;BME280;29709;52.396;16.796;2023-05-09T16:41:29;102015.86;;;19.27;28.39
44044;BME280;29709;52.396;16.796;2023-05-09T16:44:42;102022.18;;;19.36;27.98
44044;BME280;29709;52.396;16.796;2023-05-09T16:47:56;102020.77;;;19.25;28.10
44044;BME280;29709;52.396;16.796;2023-05-09T16:51:09;102005.91;;;19.18;27.76
44044;BME280;29709;52.396;16.796;2023-05-09T16:54:24;102004.96;;;19.11;27.38
44044;BME280;29709;52.396;16.796;2023-05-09T16:57:38;102000.76;;;19.00;27.50
44044;BME280;29709;52.396;16.796;2023-05-09T17:00:51;102005.87;;;18.97;28.03
44044;BME280;29709;52.396;16.796;2023-05-09T17:04:08;101989.62;;;18.86;28.30
44044;BME280;29709;52.396;16.796;2023-05-09T17:07:21;101986.83;;;18.86;27.63
44044;BME280;29709;52.396;16.796;2023-05-09T17:10:35;101992.23;;;18.72;27.62
44044;BME280;29709;52.396;16.796;2023-05-09T17:13:48;101989.84;;;18.69;27.84
44044;BME280;29709;52.396;16.796;2023-05-09T17:17:03;101979.09;;;18.66;27.65